createdAt,value
2022-07-26T00:01:35.462Z,94775.88
2022-07-26T00:04:29.457Z,94772.53
2022-07-26T00:07:16.454Z,94767.56
2022-07-26T00:09:49.613Z,94767.78
2022-07-26T00:12:36.455Z,94763.50
2022-07-26T00:15:12.661Z,94764.50
2022-07-26T00:17:59.483Z,94765.75
2022-07-26T00:20:39.442Z,94769.44
2022-07-26T00:23:26.447Z,94770.53
2022-07-26T00:25:59.777Z,94770.91
2022-07-26T00:28:47.474Z,94766.00
2022-07-26T00:31:20.689Z,94772.94
2022-07-26T00:34:07.452Z,94773.75
2022-07-26T00:36:41.875Z,94777.19
2022-07-26T00:39:28.507Z,94767.69
2022-07-26T00:42:01.694Z,94763.53
2022-07-26T00:44:50.489Z,94759.41
2022-07-26T00:47:23.620Z,94759.66
2022-07-26T00:50:13.489Z,94763.28
2022-07-26T00:53:00.540Z,94764.19
2022-07-26T00:55:54.498Z,94763.28
2022-07-26T00:58:48.465Z,94761.59
2022-07-26T01:01:35.581Z,94764.34
2022-07-26T01:04:09.937Z,94758.50
2022-07-26T01:06:56.485Z,94750.13
2022-07-26T01:09:30.666Z,94751.84
2022-07-26T01:12:20.475Z,94750.19
2022-07-26T01:15:01.493Z,94753.75
2022-07-26T01:17:49.502Z,94761.00
2022-07-26T01:20:29.496Z,94754.34
2022-07-26T01:23:16.538Z,94759.00
2022-07-26T01:25:52.587Z,94756.59
2022-07-26T01:28:43.505Z,94753.31
2022-07-26T01:31:23.552Z,94752.53
2022-07-26T01:34:17.505Z,94755.34
2022-07-26T01:37:06.494Z,94757.28
2022-07-26T01:39:39.644Z,94767.69
2022-07-26T01:42:26.530Z,94749.75
2022-07-26T01:45:06.492Z,94738.78
2022-07-26T01:48:00.535Z,94737.25
2022-07-26T01:50:47.484Z,94738.22
2022-07-26T01:53:20.614Z,94741.69
2022-07-26T01:56:07.505Z,94738.41
2022-07-26T01:58:47.498Z,94735.94
2022-07-26T02:01:41.555Z,94735.22
2022-07-26T02:04:53.498Z,94743.09
2022-07-26T02:07:49.545Z,94735.47
2022-07-26T02:10:31.517Z,94730.31
2022-07-26T02:13:27.519Z,94720.97
2022-07-26T02:16:27.565Z,94720.91
2022-07-26T02:19:14.535Z,94720.09
2022-07-26T02:21:54.514Z,94724.44
2022-07-26T02:24:41.515Z,94720.13
2022-07-26T02:27:23.510Z,94716.66
2022-07-26T02:30:10.532Z,94716.59
2022-07-26T02:32:50.545Z,94711.31
2022-07-26T02:35:44.525Z,94711.25
2022-07-26T02:38:38.558Z,94710.44
2022-07-26T02:41:32.531Z,94705.41
2022-07-26T02:44:19.541Z,94704.69
2022-07-26T02:46:59.644Z,94699.69
2022-07-26T02:49:46.517Z,94704.06
2022-07-26T02:52:27.541Z,94699.03
2022-07-26T02:55:21.526Z,94702.69
2022-07-26T02:58:08.552Z,94703.78
2022-07-26T03:00:41.621Z,94706.41
2022-07-26T03:03:28.539Z,94705.50
2022-07-26T03:06:01.677Z,94703.97
2022-07-26T03:08:48.564Z,94698.13
2022-07-26T03:11:22.715Z,94696.59
2022-07-26T03:14:10.127Z,94697.44
2022-07-26T03:16:43.616Z,94693.94
2022-07-26T03:19:30.594Z,94693.91
2022-07-26T03:22:03.642Z,94699.97
2022-07-26T03:24:50.566Z,94697.38
2022-07-26T03:27:23.662Z,94701.63
2022-07-26T03:30:11.570Z,94693.06
2022-07-26T03:32:54.541Z,94695.63
2022-07-26T03:35:48.558Z,94692.28
2022-07-26T03:38:42.619Z,94695.75
2022-07-26T03:41:38.624Z,94693.16
2022-07-26T03:44:25.572Z,94698.41
2022-07-26T03:46:59.016Z,94686.53
2022-07-26T03:49:45.572Z,94682.41
2022-07-26T03:52:18.677Z,94685.88
2022-07-26T03:55:05.558Z,94678.22
2022-07-26T03:57:41.760Z,94678.16
2022-07-26T04:00:35.565Z,94676.28
2022-07-26T04:03:22.603Z,94678.81
2022-07-26T04:06:02.618Z,94669.34
2022-07-26T04:08:57.588Z,94670.84
2022-07-26T04:11:51.600Z,94661.19
2022-07-26T04:14:38.597Z,94661.97
2022-07-26T04:17:11.842Z,94655.81
2022-07-26T04:19:58.588Z,94652.28
2022-07-26T04:22:31.933Z,94649.38
2022-07-26T04:25:18.602Z,94656.03
2022-07-26T04:27:58.600Z,94656.59
2022-07-26T04:30:46.619Z,94645.97
2022-07-26T04:33:19.733Z,94647.28
2022-07-26T04:36:06.653Z,94645.28
2022-07-26T04:38:39.742Z,94642.53
2022-07-26T04:41:26.570Z,94643.03
2022-07-26T04:43:59.697Z,94636.03
2022-07-26T04:46:46.598Z,94628.84
2022-07-26T04:49:26.606Z,94627.69
2022-07-26T04:52:13.599Z,94625.41
2022-07-26T04:54:53.627Z,94622.19
2022-07-26T04:57:47.786Z,94620.53
2022-07-26T05:01:08.493Z,94627.53
2022-07-26T05:03:55.626Z,94625.09
2022-07-26T05:06:42.600Z,94621.03
2022-07-26T05:09:15.716Z,94628.25
2022-07-26T05:12:02.602Z,94629.34
2022-07-26T05:14:43.653Z,94628.75
2022-07-26T05:17:39.600Z,94621.91
2022-07-26T05:20:33.599Z,94619.47
2022-07-26T05:23:27.615Z,94617.75
2022-07-26T05:26:21.614Z,94619.56
2022-07-26T05:29:15.623Z,94617.00
2022-07-26T05:32:09.611Z,94607.53
2022-07-26T05:34:56.635Z,94606.72
2022-07-26T05:37:29.745Z,94615.38
2022-07-26T05:40:16.635Z,94617.22
2022-07-26T05:42:56.633Z,94624.44
2022-07-26T05:45:50.694Z,94631.47
2022-07-26T05:48:44.686Z,94626.38
2022-07-26T05:51:38.604Z,94618.66
2022-07-26T05:54:27.646Z,94625.72
2022-07-26T05:57:00.737Z,94628.63
2022-07-26T05:59:54.677Z,94628.94
2022-07-26T06:02:48.719Z,94625.81
2022-07-26T06:05:35.639Z,94619.09
2022-07-26T06:08:08.770Z,94623.75
2022-07-26T06:10:55.772Z,94612.66
2022-07-26T06:13:29.833Z,94613.47
2022-07-26T06:16:16.693Z,94612.47
2022-07-26T06:18:56.657Z,94616.91
2022-07-26T06:21:43.708Z,94610.22
2022-07-26T06:24:23.684Z,94605.31
2022-07-26T06:27:11.650Z,94608.19
2022-07-26T06:29:51.648Z,94607.59
2022-07-26T06:32:45.677Z,94609.31
2022-07-26T06:35:41.650Z,94609.28
2022-07-26T06:38:28.660Z,94612.75
2022-07-26T06:41:01.771Z,94608.34
2022-07-26T06:43:48.722Z,94599.44
2022-07-26T06:46:21.939Z,94599.25
2022-07-26T06:49:08.839Z,94596.78
2022-07-26T06:51:41.873Z,94598.56
2022-07-26T06:54:28.684Z,94591.28
2022-07-26T06:57:01.770Z,94603.03
2022-07-26T06:59:55.681Z,94591.38
2022-07-26T07:02:49.661Z,94589.56
2022-07-26T07:05:36.756Z,94585.16
2022-07-26T07:08:09.785Z,94587.28
2022-07-26T07:10:58.705Z,94590.22
2022-07-26T07:13:38.707Z,94599.00
2022-07-26T07:16:25.739Z,94591.47
2022-07-26T07:19:05.681Z,94585.72
2022-07-26T07:21:52.684Z,94592.22
2022-07-26T07:24:25.803Z,94583.72
2022-07-26T07:27:12.687Z,94588.03
2022-07-26T07:29:45.831Z,94587.94
2022-07-26T07:32:32.777Z,94595.31
2022-07-26T07:37:59.730Z,94595.06
2022-07-26T07:40:35.814Z,94592.09
2022-07-26T07:43:22.696Z,94598.41
2022-07-26T07:46:02.850Z,94601.38
2022-07-26T07:48:56.838Z,94594.72
2022-07-26T07:51:58.711Z,94598.28
2022-07-26T07:54:56.191Z,94582.78
2022-07-26T07:57:53.723Z,94588.91
2022-07-26T08:00:29.814Z,94589.78
2022-07-26T08:03:18.023Z,94589.00
2022-07-26T08:05:59.720Z,94585.53
2022-07-26T08:08:53.714Z,94586.88
2022-07-26T08:11:50.834Z,94586.56
2022-07-26T08:14:37.717Z,94588.59
2022-07-26T08:17:13.870Z,94593.06
2022-07-26T08:20:00.838Z,94593.13
2022-07-26T08:22:41.739Z,94589.53
2022-07-26T08:25:35.745Z,94593.13
2022-07-26T08:31:43.779Z,94599.59
2022-07-26T08:34:37.809Z,94605.22
2022-07-26T08:37:31.734Z,94606.72
2022-07-26T08:40:18.733Z,94609.03
2022-07-26T08:43:08.754Z,94610.97
2022-07-26T08:46:02.758Z,94608.56
2022-07-26T08:49:04.983Z,94614.22
2022-07-26T08:51:51.794Z,94622.47
2022-07-26T08:54:24.894Z,94619.13
2022-07-26T08:57:11.735Z,94619.41
2022-07-26T08:59:55.756Z,94620.63
2022-07-26T09:02:53.765Z,94617.44
2022-07-26T09:05:49.746Z,94616.72
2022-07-26T09:08:36.782Z,94614.47
2022-07-26T09:11:29.987Z,94624.63
2022-07-26T09:14:16.753Z,94629.16
2022-07-26T09:17:04.885Z,94640.75
2022-07-26T09:19:52.832Z,94640.16
2022-07-26T09:22:25.872Z,94653.50
2022-07-26T09:25:27.766Z,94646.41
2022-07-26T09:28:01.933Z,94656.94
2022-07-26T09:31:05.835Z,94651.84
2022-07-26T09:33:52.950Z,94651.78
2022-07-26T09:36:39.783Z,94649.75
2022-07-26T09:39:33.368Z,94657.00
2022-07-26T09:42:29.463Z,94661.19
2022-07-26T09:45:30.780Z,94663.47
2022-07-26T09:48:25.785Z,94663.84
2022-07-26T09:51:13.784Z,94665.88
2022-07-26T09:53:53.877Z,94660.31
2022-07-26T09:56:58.777Z,94660.88
2022-07-26T09:59:40.775Z,94665.66
2022-07-26T10:02:34.862Z,94665.06
2022-07-26T10:05:21.786Z,94669.47
2022-07-26T10:07:59.302Z,94677.31
2022-07-26T10:10:56.796Z,94664.38
2022-07-26T10:13:30.519Z,94668.88
2022-07-26T10:16:36.793Z,94662.13
2022-07-26T10:19:18.789Z,94664.84
2022-07-26T10:22:30.799Z,94662.59
2022-07-26T10:25:45.817Z,94661.03
2022-07-26T10:28:42.815Z,94657.34
2022-07-26T10:31:40.835Z,94657.94
2022-07-26T10:35:00.812Z,94661.03
2022-07-26T10:38:11.828Z,94655.56
2022-07-26T10:41:08.808Z,94657.09
2022-07-26T10:44:34.868Z,94666.81
2022-07-26T10:47:24.894Z,94670.75
2022-07-26T10:50:05.731Z,94678.22
2022-07-26T10:53:04.845Z,94669.03
2022-07-26T10:55:44.828Z,94673.78
2022-07-26T10:58:33.820Z,94677.84
2022-07-26T11:01:09.991Z,94672.13
2022-07-26T11:03:56.861Z,94683.53
2022-07-26T11:06:40.845Z,94682.53
2022-07-26T11:09:27.835Z,94685.47
2022-07-26T11:12:07.827Z,94686.06
2022-07-26T11:14:54.838Z,94688.16
2022-07-26T11:17:37.950Z,94679.44
2022-07-26T11:20:33.847Z,94679.06
2022-07-26T11:23:14.826Z,94685.13
2022-07-26T11:26:13.859Z,94695.16
2022-07-26T11:29:17.778Z,94699.34
2022-07-26T11:32:18.535Z,94701.63
2022-07-26T11:35:10.842Z,94705.25
2022-07-26T11:37:50.854Z,94704.72
2022-07-26T11:40:57.843Z,94698.88
2022-07-26T11:43:52.883Z,94707.72
2022-07-26T11:46:53.967Z,94708.56
2022-07-26T11:49:51.966Z,94711.53
2022-07-26T11:52:39.861Z,94718.97
2022-07-26T11:55:21.046Z,94722.53
2022-07-26T11:58:18.880Z,94713.97
2022-07-26T12:01:12.885Z,94720.00
2022-07-26T12:04:01.985Z,94728.97
2022-07-26T12:06:35.032Z,94732.50
2022-07-26T12:09:42.855Z,94729.69
2022-07-26T12:12:33.877Z,94741.66
2022-07-26T12:15:27.902Z,94752.88
2022-07-26T12:18:14.895Z,94745.72
2022-07-26T12:21:19.870Z,94753.47
2022-07-26T12:24:14.087Z,94752.56
2022-07-26T12:27:31.891Z,94754.16
2022-07-26T12:30:08.322Z,94734.28
2022-07-26T12:32:57.880Z,94725.50
2022-07-26T12:35:47.065Z,94736.59
2022-07-26T12:38:55.950Z,94734.63
2022-07-26T12:41:53.885Z,94741.38
2022-07-26T12:44:40.907Z,94754.22
2022-07-26T12:47:14.001Z,94750.56
2022-07-26T12:50:00.911Z,94741.41
2022-07-26T12:52:44.896Z,94738.16
2022-07-26T12:55:38.941Z,94745.56
2022-07-26T12:58:25.896Z,94749.31
2022-07-26T13:00:59.079Z,94747.94
2022-07-26T13:03:45.912Z,94757.97
2022-07-26T13:06:19.126Z,94761.16
2022-07-26T13:09:05.884Z,94759.72
2022-07-26T13:11:39.036Z,94770.72
2022-07-26T13:14:32.898Z,94775.88
2022-07-26T13:17:26.943Z,94776.47
2022-07-26T13:20:21.042Z,94784.88
2022-07-26T13:23:21.409Z,94787.13
2022-07-26T13:26:15.918Z,94796.19
2022-07-26T13:29:09.931Z,94789.91
2022-07-26T13:31:57.945Z,94792.06
2022-07-26T13:34:34.887Z,94792.19
2022-07-26T13:37:21.924Z,94789.88
2022-07-26T13:39:55.030Z,94792.97
2022-07-26T13:42:41.926Z,94786.19
2022-07-26T13:45:22.925Z,94790.56
2022-07-26T13:48:17.932Z,94791.47
2022-07-26T13:51:04.933Z,94792.72
2022-07-26T13:53:54.883Z,94799.69
2022-07-26T13:56:42.921Z,94791.16
2022-07-26T13:59:17.074Z,94788.56
2022-07-26T14:02:04.094Z,94791.97
2022-07-26T14:04:43.947Z,94787.59
2022-07-26T14:07:37.932Z,94793.53
2022-07-26T14:10:32.968Z,94801.16
2022-07-26T14:13:27.340Z,94794.38
2022-07-26T14:16:20.995Z,94798.97
2022-07-26T14:19:07.953Z,94805.19
2022-07-26T14:21:48.842Z,94808.81
2022-07-26T14:24:46.948Z,94809.00
2022-07-26T14:27:20.115Z,94816.25
2022-07-26T14:30:06.956Z,94817.53
2022-07-26T14:32:40.037Z,94815.75
2022-07-26T14:35:26.978Z,94819.34
2022-07-26T14:38:00.105Z,94813.63
2022-07-26T14:40:47.995Z,94811.44
2022-07-26T14:43:27.964Z,94813.56
2022-07-26T14:46:16.027Z,94810.50
2022-07-26T14:48:55.205Z,94815.03
2022-07-26T14:51:42.977Z,94813.56
2022-07-26T14:54:22.979Z,94822.47
2022-07-26T14:57:09.959Z,94820.06
2022-07-26T14:59:43.045Z,94815.22
2022-07-26T15:02:30.037Z,94812.00
2022-07-26T15:05:10.985Z,94812.28
2022-07-26T15:08:00.579Z,94801.34
2022-07-26T15:10:38.107Z,94800.59
2022-07-26T15:13:25.998Z,94808.47
2022-07-26T15:15:59.180Z,94804.31
2022-07-26T15:18:45.962Z,94800.97
2022-07-26T15:21:27.978Z,94802.00
2022-07-26T15:24:22.982Z,94806.44
2022-07-26T15:27:10.015Z,94799.75
2022-07-26T15:29:43.265Z,94801.72
2022-07-26T15:32:29.983Z,94795.84
2022-07-26T15:35:14.709Z,94799.19
2022-07-26T15:38:10.063Z,94798.75
2022-07-26T15:40:58.354Z,94805.03
2022-07-26T15:43:48.967Z,94804.41
2022-07-26T15:46:35.993Z,94807.25
2022-07-26T15:49:17.060Z,94809.94
2022-07-26T15:52:11.062Z,94804.91
2022-07-26T15:55:05.043Z,94797.78
2022-07-26T15:58:00.003Z,94801.53
2022-07-26T16:00:54.017Z,94801.72
2022-07-26T16:03:48.014Z,94793.63
2022-07-26T16:06:45.041Z,94799.56
2022-07-26T16:09:31.999Z,94800.97
2022-07-26T16:12:06.217Z,94808.31
2022-07-26T16:14:56.028Z,94815.69
2022-07-26T16:17:29.128Z,94816.16
2022-07-26T16:20:17.041Z,94825.22
2022-07-26T16:22:50.203Z,94827.34
2022-07-26T16:25:40.030Z,94837.13
2022-07-26T16:28:13.184Z,94836.56
2022-07-26T16:30:59.998Z,94843.97
2022-07-26T16:33:33.139Z,94847.84
2022-07-26T16:36:21.044Z,94848.28
2022-07-26T16:38:54.157Z,94847.97
2022-07-26T16:41:44.062Z,94843.19
2022-07-26T16:44:17.188Z,94845.31
2022-07-26T16:47:04.131Z,94846.63
2022-07-26T16:49:44.039Z,94842.72
2022-07-26T16:52:34.039Z,94852.69
2022-07-26T16:55:17.046Z,94851.16
2022-07-26T16:58:11.085Z,94848.06
2022-07-26T17:01:05.097Z,94848.63
2022-07-26T17:03:59.057Z,94864.63
2022-07-26T17:07:22.408Z,94877.13
2022-07-26T17:10:02.037Z,94881.97
2022-07-26T17:12:35.180Z,94884.81
2022-07-26T17:15:22.055Z,94888.53
2022-07-26T17:17:55.178Z,94894.88
2022-07-26T17:20:43.044Z,94903.72
2022-07-26T17:23:18.395Z,94903.31
2022-07-26T17:26:05.051Z,94918.31
2022-07-26T17:28:45.174Z,94914.19
2022-07-26T17:31:25.058Z,94915.25
2022-07-26T17:34:12.054Z,94918.09
2022-07-26T17:36:52.056Z,94913.94
2022-07-26T17:39:51.669Z,94922.75
2022-07-26T17:42:26.430Z,94920.50
2022-07-26T17:45:06.112Z,94911.25
2022-07-26T17:47:46.062Z,94911.44
2022-07-26T17:50:36.616Z,94901.31
2022-07-26T17:53:34.182Z,94916.06
2022-07-26T17:56:10.388Z,94907.75
2022-07-26T17:58:57.075Z,94912.22
2022-07-26T18:01:37.105Z,94916.75
2022-07-26T18:04:37.117Z,94913.44
2022-07-26T18:07:17.143Z,94907.59
2022-07-26T18:09:57.192Z,94907.72
2022-07-26T18:12:56.905Z,94905.34
2022-07-26T18:15:37.504Z,94908.94
2022-07-26T18:18:18.121Z,94907.34
2022-07-26T18:21:06.957Z,94894.56
2022-07-26T18:24:14.258Z,94900.84
2022-07-26T18:26:54.114Z,94907.94
2022-07-26T18:29:27.601Z,94918.34
2022-07-26T18:32:14.110Z,94917.72
2022-07-26T18:34:54.110Z,94920.66
2022-07-26T18:37:41.186Z,94922.56
2022-07-26T18:40:14.511Z,94921.84
2022-07-26T18:43:04.119Z,94923.81
2022-07-26T18:45:37.465Z,94924.00
2022-07-26T18:48:27.211Z,94922.44
2022-07-26T18:51:08.151Z,94931.13
2022-07-26T18:53:55.238Z,94917.50
2022-07-26T18:56:35.228Z,94927.13
2022-07-26T18:59:22.120Z,94917.75
2022-07-26T19:01:55.604Z,94916.97
2022-07-26T19:04:46.959Z,94924.81
2022-07-26T19:07:20.596Z,94914.59
2022-07-26T19:10:07.143Z,94918.06
2022-07-26T19:12:47.936Z,94911.25
2022-07-26T19:15:28.342Z,94908.75
2022-07-26T19:18:17.185Z,94910.56
2022-07-26T19:20:57.396Z,94913.22
2022-07-26T19:23:37.190Z,94907.97
2022-07-26T19:26:17.450Z,94912.38
2022-07-26T19:28:57.145Z,94923.63
2022-07-26T19:31:42.979Z,94924.53
2022-07-26T19:34:23.169Z,94931.44
2022-07-26T19:37:03.352Z,94937.38
2022-07-26T19:39:43.141Z,94931.31
2022-07-26T19:42:31.146Z,94944.38
2022-07-26T19:45:11.140Z,94943.53
2022-07-26T19:47:58.158Z,94944.38
2022-07-26T19:50:38.152Z,94941.84
2022-07-26T19:53:25.192Z,94940.22
2022-07-26T19:55:58.575Z,94937.91
2022-07-26T19:58:45.197Z,94940.63
2022-07-26T20:01:25.303Z,94932.88
2022-07-26T20:04:12.161Z,94932.88
2022-07-26T20:06:45.506Z,94923.47
2022-07-26T20:09:33.188Z,94916.66
2022-07-26T20:12:13.224Z,94917.66
2022-07-26T20:14:53.282Z,94922.03
2022-07-26T20:17:33.336Z,94925.59
2022-07-26T20:20:22.159Z,94922.31
2022-07-26T20:22:55.754Z,94927.59
2022-07-26T20:25:42.202Z,94927.75
2022-07-26T20:28:16.112Z,94927.03
2022-07-26T20:31:03.282Z,94940.03
2022-07-26T20:33:43.201Z,94936.47
2022-07-26T20:36:30.166Z,94940.72
2022-07-26T20:39:11.585Z,94937.16
2022-07-26T20:42:01.486Z,94926.84
2022-07-26T20:44:34.624Z,94929.34
2022-07-26T20:47:21.186Z,94925.94
2022-07-26T20:50:02.929Z,94931.16
2022-07-26T20:52:51.188Z,94915.81
2022-07-26T20:55:24.691Z,94915.91
2022-07-26T20:58:13.210Z,94917.75
2022-07-26T21:01:01.210Z,94911.16
2022-07-26T21:03:48.212Z,94918.41
2022-07-26T21:06:21.333Z,94924.66
2022-07-26T21:09:09.821Z,94923.03
2022-07-26T21:11:44.509Z,94920.53
2022-07-26T21:14:33.198Z,94923.31
2022-07-26T21:17:11.362Z,94919.25
2022-07-26T21:20:00.229Z,94930.75
2022-07-26T21:22:35.282Z,94930.94
2022-07-26T21:25:22.217Z,94933.69
2022-07-26T21:27:55.333Z,94927.06
2022-07-26T21:30:43.196Z,94924.72
2022-07-26T21:33:17.307Z,94925.72
2022-07-26T21:36:05.194Z,94926.66
2022-07-26T21:38:48.248Z,94917.53
2022-07-26T21:41:43.196Z,94933.25
2022-07-26T21:44:30.239Z,94931.66
2022-07-26T21:47:05.773Z,94935.34
2022-07-26T21:49:55.192Z,94930.38
2022-07-26T21:52:35.194Z,94934.00
2022-07-26T21:55:29.192Z,94942.78
2022-07-26T21:58:16.236Z,94934.34
2022-07-26T22:00:56.311Z,94943.84
2022-07-26T22:03:51.200Z,94944.78
2022-07-26T22:06:38.232Z,94943.19
2022-07-26T22:09:19.203Z,94942.34
2022-07-26T22:12:06.231Z,94957.06
2022-07-26T22:14:46.228Z,94957.28
2022-07-26T22:17:33.205Z,94965.19
2022-07-26T22:20:06.377Z,94967.94
2022-07-26T22:22:53.210Z,94967.22
2022-07-26T22:25:26.339Z,94970.69
2022-07-26T22:28:17.979Z,94974.22
2022-07-26T22:31:01.217Z,94973.44
2022-07-26T22:33:48.237Z,94979.50
2022-07-26T22:36:28.230Z,94976.97
2022-07-26T22:39:15.550Z,94976.13
2022-07-26T22:42:13.749Z,94971.09
2022-07-26T22:44:56.238Z,94981.47
2022-07-26T22:47:29.365Z,94979.84
2022-07-26T22:50:19.387Z,94982.53
2022-07-26T22:52:52.390Z,94986.94
2022-07-26T22:55:41.299Z,94976.69
2022-07-26T22:58:21.233Z,94980.03
2022-07-26T23:01:15.262Z,94986.91
2022-07-26T23:04:03.419Z,94983.38
2022-07-26T23:06:39.323Z,94984.06
2022-07-26T23:09:27.279Z,94981.41
2022-07-26T23:12:00.359Z,94985.66
2022-07-26T23:14:47.288Z,94988.16
2022-07-26T23:17:20.367Z,94988.91
2022-07-26T23:20:07.229Z,94982.84
2022-07-26T23:22:43.334Z,94979.38
2022-07-26T23:25:30.249Z,94982.03
2022-07-26T23:28:03.359Z,94979.41
2022-07-26T23:30:50.238Z,94972.56
2022-07-26T23:33:51.441Z,94976.84
2022-07-26T23:36:44.262Z,94982.84
2022-07-26T23:39:38.238Z,94978.53
2022-07-26T23:42:25.290Z,94979.38
2022-07-26T23:44:58.344Z,94985.63
2022-07-26T23:47:45.288Z,94986.72
2022-07-26T23:50:25.304Z,94985.94
2022-07-26T23:53:12.252Z,94984.19
2022-07-26T23:55:49.102Z,94984.25
2022-07-26T23:58:36.275Z,94992.09
